Time;durP1;ratioP1;P1;durP2;ratioP2;P2;SDS_P1;SDS_P2;PMS_P1;PMS_P2;Temp;Humidity;BMP_temperature;BMP_pressure;BME280_temperature;BME280_humidity;BME280_pressure;Samples;Min_cycle;Max_cycle;Signal;HPM_P1;HPM_P2
2023/05/03 00:01:57;;;;;;;11.33;6.30;;;;;;;6.65;100.00;100111.88;4993290;28;20202;-77
2023/05/03 00:04:27;;;;;;;9.93;5.30;;;;;;;6.63;100.00;100111.94;4988079;28;20265;-77
2023/05/03 00:06:55;;;;;;;11.27;6.10;;;;;;;6.55;100.00;100114.81;4986295;28;20199;-77
2023/05/03 00:09:24;;;;;;;13.00;6.20;;;;;;;6.52;100.00;100111.44;4986889;28;20203;-77
2023/05/03 00:11:53;;;;;;;11.10;6.23;;;;;;;6.63;100.00;100116.34;4986217;28;20206;-77
2023/05/03 00:14:21;;;;;;;11.30;6.13;;;;;;;6.46;100.00;100115.09;4988825;28;20203;-76
2023/05/03 00:16:50;;;;;;;10.17;6.30;;;;;;;6.59;100.00;100119.09;4988019;28;20191;-77
2023/05/03 00:19:18;;;;;;;11.97;6.47;;;;;;;6.53;100.00;100116.63;4984617;28;20199;-76
2023/05/03 00:21:59;;;;;;;12.57;6.30;;;;;;;6.53;100.00;100115.78;4987273;28;20298;-77
2023/05/03 00:24:27;;;;;;;13.37;6.40;;;;;;;6.50;100.00;100116.75;4982900;28;20199;-77
2023/05/03 00:26:55;;;;;;;10.33;6.73;;;;;;;6.41;100.00;100106.50;4986693;28;20203;-76
2023/05/03 00:29:24;;;;;;;12.10;7.17;;;;;;;6.50;100.00;100116.75;4993287;28;20203;-76
2023/05/03 00:31:53;;;;;;;14.83;6.93;;;;;;;6.67;100.00;100110.94;4987020;28;20245;-76
2023/05/03 00:34:21;;;;;;;11.13;6.57;;;;;;;6.56;100.00;100113.94;4986536;28;20253;-77
2023/05/03 00:36:50;;;;;;;12.37;6.77;;;;;;;6.40;100.00;100122.34;4981540;28;20680;-77
2023/05/03 00:39:21;;;;;;;8.03;5.73;;;;;;;6.37;100.00;100119.81;4981773;28;20246;-77
2023/05/03 00:41:49;;;;;;;11.07;5.70;;;;;;;6.29;100.00;100113.03;4987576;28;20199;-76
2023/05/03 00:44:18;;;;;;;9.43;6.17;;;;;;;6.24;100.00;100108.81;4983184;28;20198;-77
2023/05/03 00:46:46;;;;;;;11.17;5.93;;;;;;;6.27;100.00;100104.34;4984485;28;20257;-77
2023/05/03 00:49:14;;;;;;;12.70;6.53;;;;;;;6.17;100.00;100102.88;4993009;28;20203;-77
2023/05/03 00:51:44;;;;;;;9.67;6.20;;;;;;;6.21;100.00;100106.28;4987339;28;20223;-77
2023/05/03 00:54:12;;;;;;;10.80;6.10;;;;;;;6.25;100.00;100114.00;4991657;28;20210;-77
2023/05/03 00:56:45;;;;;;;11.37;5.80;;;;;;;6.23;100.00;100112.34;4985979;28;20199;-76
2023/05/03 00:59:20;;;;;;;12.30;6.40;;;;;;;6.13;100.00;100101.25;4950253;28;20287;-77
2023/05/03 01:01:51;;;;;;;12.43;6.50;;;;;;;6.13;100.00;100103.88;4951944;28;20247;-77
2023/05/03 01:04:20;;;;;;;10.60;6.20;;;;;;;6.11;100.00;100099.59;4909857;29;20202;-77
2023/05/03 01:06:59;;;;;;;16.50;7.10;;;;;;;6.19;100.00;100103.69;4907566;29;20205;-77
2023/05/03 01:09:33;;;;;;;13.53;6.43;;;;;;;5.99;100.00;100098.19;4906433;29;20257;-77
2023/05/03 01:12:14;;;;;;;14.53;7.27;;;;;;;5.91;100.00;100094.94;4910460;29;20218;-77
2023/05/03 01:14:52;;;;;;;14.57;6.90;;;;;;;6.02;100.00;100088.44;4905530;29;20202;-76
2023/05/03 01:17:26;;;;;;;14.80;7.27;;;;;;;5.79;100.00;100088.25;4916072;29;20205;-77
2023/05/03 01:19:59;;;;;;;15.03;7.57;;;;;;;5.70;100.00;100085.88;4924456;29;20204;-76
2023/05/03 01:22:37;;;;;;;13.90;6.77;;;;;;;5.59;100.00;100080.03;4928240;29;20695;-77
2023/05/03 01:25:09;;;;;;;12.20;6.97;;;;;;;5.61;100.00;100083.50;4928580;29;20209;-76
2023/05/03 01:27:39;;;;;;;11.10;6.73;;;;;;;5.60;100.00;100079.16;4935898;29;20196;-77
2023/05/03 01:30:09;;;;;;;15.20;7.13;;;;;;;5.40;100.00;100093.72;4933846;29;20348;-76
2023/05/03 01:32:49;;;;;;;12.67;6.50;;;;;;;5.43;100.00;100084.91;4886857;29;20299;-76
2023/05/03 01:35:26;;;;;;;13.80;6.60;;;;;;;5.40;100.00;100085.84;4954885;28;20250;-77
2023/05/03 01:37:57;;;;;;;11.73;6.80;;;;;;;5.33;100.00;100093.94;4991453;28;20206;-76
2023/05/03 01:40:28;;;;;;;11.70;6.20;;;;;;;5.42;100.00;100091.91;4985706;28;20245;-76
2023/05/03 01:42:57;;;;;;;9.93;6.50;;;;;;;5.35;100.00;100087.72;4993179;28;20195;-77
2023/05/03 01:45:26;;;;;;;11.97;6.23;;;;;;;5.29;100.00;100089.66;4992876;28;20204;-77
2023/05/03 01:47:56;;;;;;;13.37;6.37;;;;;;;5.28;100.00;100094.03;4991630;28;20210;-77
2023/05/03 01:50:24;;;;;;;15.97;6.73;;;;;;;5.23;100.00;100093.31;4991770;28;20230;-77
2023/05/03 01:52:53;;;;;;;13.73;6.43;;;;;;;5.16;100.00;100091.75;4989402;28;20210;-77
2023/05/03 01:55:21;;;;;;;13.53;6.43;;;;;;;5.29;100.00;100093.13;4994274;28;20207;-77
2023/05/03 01:57:51;;;;;;;11.70;5.50;;;;;;;5.32;100.00;100097.47;4991656;28;20693;-77
2023/05/03 02:00:20;;;;;;;9.23;5.27;;;;;;;5.27;100.00;100089.69;4988009;28;20227;-77
2023/05/03 02:02:50;;;;;;;11.00;5.47;;;;;;;5.12;100.00;100088.38;4991989;28;20191;-76
2023/05/03 02:05:18;;;;;;;11.90;5.77;;;;;;;5.14;100.00;100090.94;4985798;28;20233;-76
2023/05/03 02:07:47;;;;;;;8.03;5.43;;;;;;;5.12;100.00;100091.00;4990101;28;20207;-76
2023/05/03 02:10:15;;;;;;;9.63;5.20;;;;;;;4.96;100.00;100094.06;4986151;28;20244;-76
2023/05/03 02:12:44;;;;;;;7.90;5.20;;;;;;;5.10;100.00;100091.91;4992445;28;20305;-76
2023/05/03 02:15:14;;;;;;;12.50;6.33;;;;;;;5.06;100.00;100098.16;4992313;28;20206;-77
2023/05/03 02:17:44;;;;;;;11.57;6.40;;;;;;;5.29;100.00;100092.28;4995095;28;20195;-76
2023/05/03 02:20:13;;;;;;;10.30;6.43;;;;;;;5.21;100.00;100087.25;4988039;28;20685;-76
2023/05/03 02:22:41;;;;;;;9.93;6.30;;;;;;;5.24;100.00;100091.56;4988121;28;20202;-77
2023/05/03 02:25:10;;;;;;;10.30;5.83;;;;;;;5.31;100.00;100095.75;4990293;28;20199;-77
2023/05/03 02:27:38;;;;;;;9.07;6.40;;;;;;;5.17;100.00;100101.34;4991217;28;20207;-76
2023/05/03 02:30:08;;;;;;;14.23;6.37;;;;;;;5.15;100.00;100105.81;4981060;28;20207;-76
2023/05/03 02:32:38;;;;;;;10.23;6.23;;;;;;;5.31;100.00;100104.50;4986191;28;20215;-77
2023/05/03 02:35:07;;;;;;;10.23;5.90;;;;;;;5.27;100.00;100115.09;4985735;28;20343;-77
2023/05/03 02:37:35;;;;;;;15.13;6.40;;;;;;;5.35;100.00;100110.50;4898371;28;20273;-77
2023/05/03 02:40:05;;;;;;;7.93;5.73;;;;;;;5.43;100.00;100112.03;4985812;28;20575;-77
2023/05/03 02:42:33;;;;;;;10.40;6.37;;;;;;;5.29;100.00;100116.78;4988588;28;20203;-76
2023/05/03 02:45:02;;;;;;;11.57;5.97;;;;;;;5.44;100.00;100115.50;4990085;28;20253;-76
2023/05/03 02:47:30;;;;;;;10.73;6.33;;;;;;;5.38;100.00;100119.16;4990200;28;20205;-76
2023/05/03 02:50:00;;;;;;;9.87;5.67;;;;;;;5.49;100.00;100116.22;4984002;28;20199;-76
2023/05/03 02:52:29;;;;;;;9.70;5.93;;;;;;;5.45;100.00;100114.59;4988866;28;20227;-76
2023/05/03 02:54:57;;;;;;;9.73;5.73;;;;;;;5.45;100.00;100119.84;4989653;28;20192;-77
2023/05/03 02:57:25;;;;;;;9.13;5.90;;;;;;;5.41;100.00;100123.50;4988012;28;20646;-77
2023/05/03 02:59:55;;;;;;;10.70;6.07;;;;;;;5.42;100.00;100133.94;4991421;28;20732;-77
2023/05/03 03:02:24;;;;;;;12.57;6.50;;;;;;;5.40;100.00;100127.88;4989540;28;20213;-77
2023/05/03 03:04:53;;;;;;;12.43;6.70;;;;;;;5.40;100.00;100112.13;4986520;28;20205;-77
2023/05/03 03:07:23;;;;;;;11.50;6.67;;;;;;;5.37;100.00;100121.84;4989193;28;20202;-77
2023/05/03 03:09:52;;;;;;;11.50;6.33;;;;;;;5.35;100.00;100121.03;4983872;28;20253;-77
2023/05/03 03:12:20;;;;;;;12.40;6.90;;;;;;;5.36;100.00;100115.72;4988058;28;20269;-77
2023/05/03 03:14:48;;;;;;;13.43;6.87;;;;;;;5.25;100.00;100117.78;4994129;28;20207;-77
2023/05/03 03:17:16;;;;;;;10.27;6.43;;;;;;;5.29;100.00;100106.28;4994127;28;20202;-76
2023/05/03 03:19:44;;;;;;;10.73;6.67;;;;;;;5.26;100.00;100106.38;4988491;28;20708;-77
2023/05/03 03:22:13;;;;;;;10.10;6.77;;;;;;;5.30;100.00;100104.50;4989274;28;20250;-76
2023/05/03 03:24:43;;;;;;;11.90;7.33;;;;;;;5.34;100.00;100108.78;4992764;28;20202;-77
2023/05/03 03:27:12;;;;;;;11.67;7.10;;;;;;;5.22;100.00;100109.13;4984992;28;20254;-77
2023/05/03 03:29:40;;;;;;;11.47;7.00;;;;;;;5.11;100.00;100101.50;4988679;28;20227;-76
2023/05/03 03:32:09;;;;;;;13.23;6.80;;;;;;;5.17;100.00;100096.09;4981980;28;20223;-77
2023/05/03 03:34:37;;;;;;;10.97;7.20;;;;;;;5.07;100.00;100100.75;4987103;28;20199;-77
2023/05/03 03:37:06;;;;;;;11.57;7.23;;;;;;;4.90;100.00;100097.69;4987431;28;20257;-77
2023/05/03 03:39:34;;;;;;;16.50;7.40;;;;;;;4.90;100.00;100108.19;4989684;28;20191;-76
2023/05/03 03:42:04;;;;;;;13.37;6.77;;;;;;;4.74;100.00;100109.50;4981669;28;20258;-77
2023/05/03 03:44:32;;;;;;;13.27;7.10;;;;;;;4.70;100.00;100110.47;4985872;28;20206;-77
2023/05/03 03:47:04;;;;;;;11.70;7.20;;;;;;;4.71;100.00;100106.94;4981174;28;20250;-76
2023/05/03 03:49:32;;;;;;;9.00;6.63;;;;;;;4.73;100.00;100119.13;4956341;28;20355;-77
2023/05/03 03:52:00;;;;;;;16.30;8.07;;;;;;;4.57;100.00;100118.63;4988265;28;20215;-77
2023/05/03 03:54:29;;;;;;;13.10;8.20;;;;;;;4.62;100.00;100122.91;4988708;28;20254;-76
2023/05/03 03:56:57;;;;;;;12.00;7.53;;;;;;;4.62;100.00;100117.66;4993409;28;20205;-77
2023/05/03 03:59:27;;;;;;;14.23;7.63;;;;;;;4.53;100.00;100116.09;4988022;28;20223;-77
2023/05/03 04:01:56;;;;;;;16.87;7.83;;;;;;;4.52;100.00;100124.88;4986477;28;20302;-76
2023/05/03 04:04:25;;;;;;;11.33;7.87;;;;;;;4.59;100.00;100123.84;4983464;28;20213;-76
2023/05/03 04:06:53;;;;;;;14.77;8.33;;;;;;;4.71;100.00;100117.44;4988135;28;20277;-77
2023/05/03 04:09:22;;;;;;;13.00;7.70;;;;;;;4.70;100.00;100115.69;4981793;28;20356;-77
2023/05/03 04:11:50;;;;;;;14.60;8.07;;;;;;;4.73;100.00;100126.13;4930663;29;20201;-77
2023/05/03 04:14:18;;;;;;;11.77;7.67;;;;;;;4.72;100.00;100124.41;4927375;29;20193;-77
2023/05/03 04:16:49;;;;;;;13.57;7.70;;;;;;;4.79;100.00;100121.59;4929090;29;20201;-77
2023/05/03 04:19:17;;;;;;;13.03;8.10;;;;;;;4.71;100.00;100131.41;4933280;29;20344;-76
2023/05/03 04:21:46;;;;;;;14.83;7.80;;;;;;;4.68;100.00;100131.50;4925322;29;20671;-76
2023/05/03 04:24:16;;;;;;;11.57;7.90;;;;;;;4.73;100.00;100124.38;4927089;29;20193;-77
2023/05/03 04:26:44;;;;;;;18.07;7.93;;;;;;;4.62;100.00;100123.75;4928285;29;20213;-76
2023/05/03 04:29:13;;;;;;;12.30;7.87;;;;;;;4.54;100.00;100134.47;4937628;28;20210;-77
2023/05/03 04:31:41;;;;;;;13.20;8.43;;;;;;;4.68;100.00;100134.13;4990549;28;20365;-77
2023/05/03 04:34:13;;;;;;;12.33;7.80;;;;;;;4.60;100.00;100131.66;4978681;28;20701;-77
2023/05/03 04:36:44;;;;;;;11.60;7.70;;;;;;;4.57;100.00;100141.38;4989052;28;20203;-76
2023/05/03 04:39:12;;;;;;;11.33;7.73;;;;;;;4.59;100.00;100136.97;4991833;28;20198;-77
2023/05/03 04:41:41;;;;;;;14.33;8.23;;;;;;;4.67;100.00;100140.28;4982478;28;20258;-77
2023/05/03 04:44:09;;;;;;;12.93;7.93;;;;;;;4.55;100.00;100143.19;4987861;28;20198;-77
2023/05/03 04:46:38;;;;;;;14.37;7.87;;;;;;;4.68;100.00;100142.00;4983410;28;20203;-77
2023/05/03 04:49:06;;;;;;;9.97;7.40;;;;;;;4.80;100.00;100140.81;4988634;28;20224;-76
2023/05/03 04:51:36;;;;;;;15.53;8.07;;;;;;;4.82;100.00;100137.25;4985927;28;20254;-76
2023/05/03 04:54:05;;;;;;;12.00;7.60;;;;;;;4.96;100.00;100141.31;4982124;28;20223;-76
2023/05/03 04:56:34;;;;;;;13.37;8.40;;;;;;;4.99;100.00;100147.34;4989254;28;20250;-77
2023/05/03 04:59:03;;;;;;;12.67;8.40;;;;;;;5.14;100.00;100152.22;4993476;28;20211;-77
2023/05/03 05:01:31;;;;;;;10.90;7.53;;;;;;;5.13;100.00;100150.50;4989684;28;20206;-76
2023/05/03 05:03:59;;;;;;;11.37;7.80;;;;;;;5.06;100.00;100145.44;4989484;28;20206;-76
2023/05/03 05:06:28;;;;;;;11.63;7.53;;;;;;;5.18;100.00;100158.22;4993455;28;20195;-76
2023/05/03 05:08:58;;;;;;;13.33;7.73;;;;;;;5.26;100.00;100155.41;4949855;29;20200;-76
2023/05/03 05:11:26;;;;;;;14.47;7.93;;;;;;;5.24;100.00;100147.56;4943739;29;20212;-76
2023/05/03 05:13:55;;;;;;;15.17;7.93;;;;;;;5.42;100.00;100148.84;4955385;29;20220;-76
2023/05/03 05:16:23;;;;;;;13.33;7.67;;;;;;;5.61;100.00;100146.59;4952861;29;20193;-76
2023/05/03 05:18:53;;;;;;;12.27;7.30;;;;;;;5.60;100.00;100139.59;4945005;29;20232;-76
2023/05/03 05:21:21;;;;;;;10.23;7.40;;;;;;;5.65;100.00;100145.59;4951477;29;20205;-76
2023/05/03 05:23:49;;;;;;;10.67;7.80;;;;;;;5.53;100.00;100151.19;4953956;29;20223;-76
2023/05/03 05:26:19;;;;;;;13.37;7.53;;;;;;;5.67;100.00;100154.28;4954340;28;20207;-76
2023/05/03 05:28:47;;;;;;;11.27;6.90;;;;;;;5.79;100.00;100147.81;4989982;28;20666;-76
2023/05/03 05:31:15;;;;;;;14.67;7.53;;;;;;;5.81;100.00;100149.50;4988169;28;20199;-76
2023/05/03 05:33:43;;;;;;;13.37;7.07;;;;;;;6.05;100.00;100144.47;4995665;28;20226;-76
2023/05/03 05:36:12;;;;;;;12.43;6.87;;;;;;;6.11;100.00;100142.53;4991329;28;20199;-76
2023/05/03 05:38:41;;;;;;;10.97;7.13;;;;;;;6.02;100.00;100146.28;4990764;28;20230;-76
2023/05/03 05:41:09;;;;;;;9.80;7.03;;;;;;;6.15;100.00;100141.50;4989050;28;20203;-76
2023/05/03 05:43:38;;;;;;;10.70;7.07;;;;;;;6.19;100.00;100142.31;4992842;28;20203;-76
2023/05/03 05:46:07;;;;;;;9.20;6.43;;;;;;;6.35;100.00;100146.16;4988374;28;20199;-76
2023/05/03 05:48:35;;;;;;;15.30;7.50;;;;;;;6.43;100.00;100141.53;4985634;28;20203;-76
2023/05/03 05:51:04;;;;;;;9.57;6.60;;;;;;;6.58;100.00;100148.09;4992078;28;20203;-76
2023/05/03 05:53:33;;;;;;;12.80;7.17;;;;;;;6.60;100.00;100154.16;4994200;28;20222;-76
2023/05/03 05:56:01;;;;;;;9.57;6.90;;;;;;;6.65;100.00;100156.63;4990398;28;20199;-76
2023/05/03 05:58:30;;;;;;;11.53;6.10;;;;;;;6.74;100.00;100157.19;4988542;28;20214;-76
2023/05/03 06:01:02;;;;;;;9.80;6.93;;;;;;;6.72;100.00;100166.94;4989819;28;20285;-76
2023/05/03 06:03:31;;;;;;;9.53;6.63;;;;;;;6.84;100.00;100158.63;4990456;28;20199;-76
2023/05/03 06:05:59;;;;;;;11.67;6.27;;;;;;;6.90;100.00;100160.22;4989092;28;20246;-76
2023/05/03 06:08:28;;;;;;;9.07;6.13;;;;;;;6.99;100.00;100145.88;4984596;28;20205;-76
2023/05/03 06:10:56;;;;;;;9.63;5.40;;;;;;;7.10;100.00;100146.38;4992382;28;20199;-76
2023/05/03 06:13:25;;;;;;;10.10;5.90;;;;;;;7.18;100.00;100141.72;4985074;28;20265;-76
2023/05/03 06:15:53;;;;;;;11.33;5.67;;;;;;;7.28;100.00;100148.38;4984650;28;20203;-76
2023/05/03 06:18:23;;;;;;;8.60;5.57;;;;;;;7.46;100.00;100146.88;4988738;28;20246;-76
2023/05/03 06:20:51;;;;;;;11.20;5.10;;;;;;;7.52;100.00;100141.38;4985397;28;20254;-76
2023/05/03 06:23:20;;;;;;;10.07;5.17;;;;;;;7.48;100.00;100145.06;4989347;28;20199;-76
2023/05/03 06:25:49;;;;;;;10.30;5.53;;;;;;;7.57;100.00;100149.13;4986851;28;20198;-76
2023/05/03 06:28:17;;;;;;;7.20;4.93;;;;;;;7.81;100.00;100148.22;4992509;28;20199;-76
2023/05/03 06:30:50;;;;;;;7.73;4.90;;;;;;;7.78;100.00;100152.78;4992197;28;20249;-76
2023/05/03 06:33:18;;;;;;;8.40;5.37;;;;;;;7.86;100.00;100156.00;4987038;28;20237;-77
2023/05/03 06:35:48;;;;;;;6.97;4.87;;;;;;;8.04;100.00;100148.25;4984984;28;20246;-76
2023/05/03 06:38:16;;;;;;;9.50;5.03;;;;;;;8.06;100.00;100149.97;4990177;28;20234;-76
2023/05/03 06:40:45;;;;;;;8.80;5.17;;;;;;;7.96;100.00;100152.94;4986230;28;20207;-76
2023/05/03 06:43:13;;;;;;;10.43;5.43;;;;;;;8.09;100.00;100145.44;4991880;28;20265;-77
2023/05/03 06:45:43;;;;;;;7.60;5.20;;;;;;;8.10;100.00;100149.78;4989282;28;20291;-76
2023/05/03 06:48:11;;;;;;;8.87;5.20;;;;;;;8.15;100.00;100141.72;4986078;28;20196;-76
2023/05/03 06:50:40;;;;;;;13.37;5.03;;;;;;;8.24;100.00;100144.00;4988073;28;20194;-77
2023/05/03 06:53:10;;;;;;;9.57;5.07;;;;;;;8.22;100.00;100146.69;4987228;28;20202;-76
2023/05/03 06:55:38;;;;;;;9.23;5.20;;;;;;;8.41;100.00;100149.53;4985013;28;20658;-76
2023/05/03 06:58:10;;;;;;;9.00;5.47;;;;;;;8.41;100.00;100144.25;4988172;28;20191;-76
2023/05/03 07:00:39;;;;;;;7.63;5.10;;;;;;;8.53;100.00;100141.09;4991343;28;20233;-76
2023/05/03 07:03:08;;;;;;;7.57;5.07;;;;;;;8.54;100.00;100140.19;4985070;28;20357;-77
2023/05/03 07:05:37;;;;;;;8.70;5.03;;;;;;;8.62;100.00;100128.47;4989799;28;20195;-76
2023/05/03 07:08:05;;;;;;;8.27;5.23;;;;;;;8.66;100.00;100128.25;4987242;28;20230;-77
2023/05/03 07:10:35;;;;;;;11.00;5.27;;;;;;;8.70;100.00;100132.50;4986072;28;20191;-76
2023/05/03 07:13:04;;;;;;;7.17;4.97;;;;;;;8.76;100.00;100123.47;4988970;28;20192;-76
2023/05/03 07:15:33;;;;;;;8.47;5.10;;;;;;;8.87;100.00;100123.88;4987553;28;20261;-76
2023/05/03 07:18:01;;;;;;;7.80;5.00;;;;;;;8.82;100.00;100126.72;4986689;28;20195;-76
2023/05/03 07:20:29;;;;;;;7.83;4.90;;;;;;;9.04;100.00;100129.31;4985758;28;20199;-76
2023/05/03 07:22:58;;;;;;;7.97;4.80;;;;;;;9.11;100.00;100135.22;4987355;28;20215;-77
2023/05/03 07:25:26;;;;;;;8.80;4.80;;;;;;;9.24;100.00;100131.13;4989713;28;20196;-77
2023/05/03 07:27:56;;;;;;;7.77;4.57;;;;;;;9.39;100.00;100135.75;4987856;28;20203;-76
2023/05/03 07:30:25;;;;;;;6.53;4.57;;;;;;;9.44;100.00;100143.47;4993955;28;20242;-77
2023/05/03 07:32:54;;;;;;;8.13;4.20;;;;;;;9.53;100.00;100136.94;4983919;28;20249;-77
2023/05/03 07:35:23;;;;;;;5.77;4.23;;;;;;;9.48;100.00;100136.28;4988625;28;20219;-77
2023/05/03 07:37:51;;;;;;;7.80;4.47;;;;;;;9.54;100.00;100138.63;4987380;28;20241;-80
2023/05/03 07:40:20;;;;;;;10.10;4.87;;;;;;;9.57;100.00;100142.03;4984726;28;20203;-77
2023/05/03 07:42:48;;;;;;;5.43;4.00;;;;;;;9.75;100.00;100145.66;4989304;28;20199;-77
2023/05/03 07:45:19;;;;;;;6.43;4.10;;;;;;;9.94;100.00;100133.31;4982361;28;20379;-77
2023/05/03 07:47:48;;;;;;;5.50;4.07;;;;;;;10.18;100.00;100139.25;4987466;28;20190;-77
2023/05/03 07:50:16;;;;;;;5.67;4.20;;;;;;;10.22;100.00;100127.59;4989301;28;20203;-77
2023/05/03 07:52:45;;;;;;;6.53;4.37;;;;;;;10.30;100.00;100140.47;4988083;28;20203;-77
2023/05/03 07:55:13;;;;;;;8.03;4.53;;;;;;;10.31;100.00;100143.06;4984190;28;20230;-77
2023/05/03 07:57:41;;;;;;;6.80;3.83;;;;;;;10.44;98.27;100135.41;4986107;28;20209;-76
2023/05/03 08:00:11;;;;;;;7.83;4.00;;;;;;;10.39;98.24;100124.16;4987115;28;20461;-77
2023/05/03 08:02:41;;;;;;;8.00;4.30;;;;;;;10.52;99.04;100121.81;4978771;28;20199;-76
2023/05/03 08:05:13;;;;;;;7.70;4.17;;;;;;;10.81;97.59;100120.38;4988275;28;20195;-77
2023/05/03 08:07:43;;;;;;;6.00;4.07;;;;;;;10.94;97.11;100132.06;4988253;28;20195;-77
2023/05/03 08:10:14;;;;;;;8.23;4.27;;;;;;;11.07;97.01;100130.50;4985261;28;20198;-76
2023/05/03 08:12:44;;;;;;;6.07;4.07;;;;;;;10.91;97.89;100118.97;4984753;28;20207;-77
2023/05/03 08:15:12;;;;;;;6.50;3.93;;;;;;;11.01;94.69;100137.94;4986973;28;20226;-77
2023/05/03 08:17:44;;;;;;;7.77;4.10;;;;;;;10.91;94.94;100121.63;4990457;28;20249;-77
2023/05/03 08:20:14;;;;;;;7.13;4.33;;;;;;;11.05;95.83;100134.19;4988431;28;20195;-77
2023/05/03 08:22:44;;;;;;;7.30;4.40;;;;;;;11.18;92.71;100117.56;4993171;28;20681;-77
2023/05/03 08:25:12;;;;;;;5.93;3.87;;;;;;;11.37;90.21;100128.09;4986583;28;20199;-77
2023/05/03 08:27:40;;;;;;;6.40;3.73;;;;;;;11.70;89.77;100125.47;4984106;28;20203;-78
2023/05/03 08:30:09;;;;;;;6.87;3.87;;;;;;;11.67;87.76;100124.75;4993062;28;20206;-77
2023/05/03 08:32:38;;;;;;;8.37;5.13;;;;;;;11.57;84.30;100116.44;4989358;28;20195;-76
2023/05/03 08:35:09;;;;;;;6.87;3.73;;;;;;;11.62;86.98;100116.22;4994278;28;20219;-76
2023/05/03 08:37:40;;;;;;;6.77;4.40;;;;;;;11.69;86.14;100123.78;4992779;28;20255;-77
2023/05/03 08:40:10;;;;;;;7.13;3.80;;;;;;;11.84;87.81;100124.75;4991904;28;20203;-77
2023/05/03 08:42:40;;;;;;;6.43;4.10;;;;;;;12.10;86.01;100122.50;4988061;28;20228;-76
2023/05/03 08:45:11;;;;;;;9.73;4.90;;;;;;;12.01;83.21;100119.41;4986842;28;20207;-76
2023/05/03 08:47:40;;;;;;;7.60;4.70;;;;;;;12.00;81.88;100112.38;4994137;28;20208;-77
2023/05/03 08:50:12;;;;;;;8.40;3.70;;;;;;;12.10;84.34;100114.53;4990855;28;20210;-77
2023/05/03 08:52:42;;;;;;;6.73;3.60;;;;;;;12.07;81.88;100120.03;4963197;28;20209;-80
2023/05/03 08:55:11;;;;;;;6.87;3.87;;;;;;;12.28;81.11;100117.03;4992178;28;20212;-79
2023/05/03 08:57:40;;;;;;;7.17;4.23;;;;;;;12.54;77.42;100120.88;4991248;28;20202;-79
2023/05/03 09:00:11;;;;;;;8.20;3.90;;;;;;;12.59;76.15;100121.47;4959673;28;20219;-77
2023/05/03 09:02:40;;;;;;;8.00;3.77;;;;;;;12.28;75.34;100119.69;4990309;28;20207;-79
2023/05/03 09:05:34;;;;;;;9.33;4.60;;;;;;;12.76;76.83;100111.69;4992283;28;20203;-79
2023/05/03 09:08:03;;;;;;;6.53;3.90;;;;;;;12.65;73.61;100108.78;4993684;28;20282;-76
2023/05/03 09:10:34;;;;;;;6.87;4.30;;;;;;;12.73;71.56;100114.50;4987262;28;20211;-76
2023/05/03 09:13:02;;;;;;;7.13;3.50;;;;;;;13.01;75.96;100108.44;4993478;28;20705;-76
2023/05/03 09:15:31;;;;;;;6.10;3.77;;;;;;;13.08;74.65;100105.34;4991061;28;20302;-76
2023/05/03 09:18:10;;;;;;;6.60;4.30;;;;;;;13.10;73.47;100099.91;4996433;28;20191;-76
2023/05/03 09:20:50;;;;;;;8.10;3.70;;;;;;;13.38;73.27;100109.81;4996341;28;20278;-76
2023/05/03 09:23:28;;;;;;;7.70;3.90;;;;;;;13.18;73.12;100109.16;4993342;28;20194;-76
2023/05/03 09:25:58;;;;;;;6.87;3.40;;;;;;;13.25;68.90;100106.19;4992725;28;20254;-76
2023/05/03 09:28:26;;;;;;;5.00;3.23;;;;;;;13.65;69.81;100104.63;4991041;28;20203;-76
2023/05/03 09:31:05;;;;;;;6.93;3.90;;;;;;;13.33;68.39;100102.13;4993267;28;20218;-76
2023/05/03 09:33:34;;;;;;;8.43;3.50;;;;;;;13.56;67.64;100094.53;4992044;28;20709;-79
2023/05/03 09:36:05;;;;;;;7.57;3.83;;;;;;;13.61;69.39;100101.31;4993442;28;20278;-76
2023/05/03 09:38:35;;;;;;;8.00;3.20;;;;;;;14.04;65.20;100095.94;4987355;28;20253;-76
2023/05/03 09:41:04;;;;;;;6.27;3.70;;;;;;;14.03;62.59;100091.56;4995838;28;20191;-76
2023/05/03 09:43:33;;;;;;;5.70;3.33;;;;;;;14.00;63.38;100092.63;4995285;28;20195;-77
2023/05/03 09:46:09;;;;;;;7.43;3.70;;;;;;;13.91;64.88;100089.69;4993024;28;20219;-75
2023/05/03 09:48:38;;;;;;;4.63;3.50;;;;;;;14.31;63.41;100082.69;4991904;28;20199;-76
2023/05/03 09:51:09;;;;;;;6.27;3.50;;;;;;;14.83;59.85;100088.13;4987946;28;20207;-76
2023/05/03 09:53:38;;;;;;;4.13;3.20;;;;;;;14.77;56.86;100085.03;4989464;28;20211;-76
2023/05/03 09:56:11;;;;;;;4.80;3.60;;;;;;;14.86;59.32;100079.94;4984220;28;20309;-76
2023/05/03 09:58:42;;;;;;;3.90;3.23;;;;;;;14.69;59.33;100077.53;4987622;28;20203;-76
2023/05/03 10:01:11;;;;;;;7.37;3.60;;;;;;;14.71;59.40;100072.09;4989077;28;20223;-76
2023/05/03 10:03:41;;;;;;;5.57;3.70;;;;;;;14.67;60.11;100068.78;4991182;28;20207;-77
2023/05/03 10:06:25;;;;;;;6.40;3.50;;;;;;;14.77;61.13;100066.38;4990813;28;20199;-76
2023/05/03 10:08:58;;;;;;;4.53;3.40;;;;;;;15.51;57.58;100065.69;4988020;28;20213;-77
2023/05/03 10:11:27;;;;;;;6.27;3.07;;;;;;;15.57;53.71;100073.28;4992729;28;20206;-76
2023/05/03 10:13:56;;;;;;;4.63;3.13;;;;;;;15.43;51.47;100074.25;4995604;28;20673;-77
2023/05/03 10:16:30;;;;;;;5.90;3.23;;;;;;;15.39;52.30;100071.91;4992341;28;20281;-75
2023/05/03 10:19:07;;;;;;;5.93;3.50;;;;;;;15.37;54.25;100069.34;4989631;28;20203;-77
2023/05/03 10:21:54;;;;;;;6.67;3.43;;;;;;;15.63;54.00;100061.34;4988831;28;20191;-76
2023/05/03 10:24:22;;;;;;;5.97;3.10;;;;;;;15.56;52.54;100073.41;4988387;28;20650;-77
2023/05/03 10:26:52;;;;;;;5.03;3.40;;;;;;;15.61;50.67;100058.78;4995155;28;20191;-76
2023/05/03 10:29:48;;;;;;;5.47;3.40;;;;;;;16.10;50.69;100062.44;4991213;28;20203;-77
2023/05/03 10:32:38;;;;;;;5.20;3.47;;;;;;;16.40;48.52;100057.53;4995210;28;20268;-76
2023/05/03 10:35:09;;;;;;;6.27;3.40;;;;;;;16.65;47.63;100059.25;4989393;28;20203;-76
2023/05/03 10:37:41;;;;;;;5.67;3.10;;;;;;;16.68;46.41;100064.38;4986562;28;20250;-77
2023/05/03 10:40:12;;;;;;;4.27;3.10;;;;;;;16.77;43.41;100073.56;4990700;28;20267;-76
2023/05/03 10:42:44;;;;;;;6.70;3.43;;;;;;;16.59;43.57;100073.06;4989773;28;20270;-76
2023/05/03 10:45:21;;;;;;;4.57;3.30;;;;;;;17.51;43.93;100063.44;4982894;28;20203;-76
2023/05/03 10:48:19;;;;;;;6.13;3.10;;;;;;;17.41;42.17;100076.69;4986165;28;20257;-77
2023/05/03 10:50:49;;;;;;;5.43;3.20;;;;;;;17.56;44.33;100064.75;4987961;28;20202;-76
2023/05/03 10:53:49;;;;;;;5.77;3.43;;;;;;;17.56;43.10;100053.19;4986559;28;20206;-76
2023/05/03 10:56:17;;;;;;;5.53;3.30;;;;;;;17.67;41.79;100063.94;4991317;28;20214;-77
2023/05/03 10:58:49;;;;;;;6.07;3.10;;;;;;;17.76;41.72;100052.53;4987326;28;20195;-77
2023/05/03 11:01:19;;;;;;;5.63;2.97;;;;;;;17.38;41.19;100061.72;4985043;28;20234;-76
2023/05/03 11:03:52;;;;;;;5.77;3.00;;;;;;;17.41;40.46;100052.56;4989230;28;20278;-79
2023/05/03 11:06:32;;;;;;;5.47;2.90;;;;;;;17.84;40.77;100041.16;4990649;28;20203;-79
2023/05/03 11:09:04;;;;;;;4.33;2.80;;;;;;;17.99;41.79;100032.75;4989065;28;20194;-77
2023/05/03 11:11:33;;;;;;;5.77;2.90;;;;;;;18.12;40.22;100026.41;4988482;28;20206;-76
2023/05/03 11:14:02;;;;;;;5.97;3.13;;;;;;;17.68;42.55;100026.31;4991576;28;20246;-77
2023/05/03 11:16:30;;;;;;;7.17;3.03;;;;;;;18.11;45.35;100011.28;4979995;28;20219;-78
2023/05/03 11:18:59;;;;;;;4.27;3.00;;;;;;;17.63;44.44;100015.06;4991425;28;20294;-77
2023/05/03 11:21:28;;;;;;;6.73;3.07;;;;;;;18.58;43.88;100002.84;4991406;28;20207;-77
2023/05/03 11:23:59;;;;;;;5.90;3.30;;;;;;;18.67;42.50;100011.16;4987412;28;20213;-77
2023/05/03 11:26:29;;;;;;;4.73;3.00;;;;;;;18.76;42.03;100005.84;4993994;28;20195;-77
2023/05/03 11:28:57;;;;;;;7.03;3.43;;;;;;;18.78;40.66;100009.25;4991066;28;20201;-77
2023/05/03 11:31:25;;;;;;;8.23;3.90;;;;;;;18.97;40.81;100010.38;4987157;28;20199;-77
2023/05/03 11:33:54;;;;;;;5.80;2.70;;;;;;;19.37;39.36;100008.66;4988599;28;20254;-77
2023/05/03 11:36:22;;;;;;;5.30;2.73;;;;;;;19.11;40.22;100007.38;4990034;28;20219;-78